sensor_id;sensor_type;location;lat;lon;timestamp;P1;durP1;ratioP1;P2;durP2;ratioP2
73733;SDS011;62039;50.000;9.064;2023-08-07T00:02:12;0.40;;;0.40;;
73733;SDS011;62039;50.000;9.064;2023-08-07T00:04:39;0.50;;;0.47;;
73733;SDS011;62039;50.000;9.064;2023-08-07T00:07:06;1.23;;;0.50;;
73733;SDS011;62039;50.000;9.064;2023-08-07T00:09:33;0.60;;;0.50;;
73733;SDS011;62039;50.000;9.064;2023-08-07T00:12:00;1.07;;;0.47;;
73733;SDS011;62039;50.000;9.064;2023-08-07T00:14:27;1.17;;;0.53;;
73733;SDS011;62039;50.000;9.064;2023-08-07T00:16:56;0.50;;;0.40;;
73733;SDS011;62039;50.000;9.064;2023-08-07T00:19:23;0.60;;;0.40;;
73733;SDS011;62039;50.000;9.064;2023-08-07T00:21:50;0.63;;;0.50;;
73733;SDS011;62039;50.000;9.064;2023-08-07T00:24:18;3.20;;;0.90;;
73733;SDS011;62039;50.000;9.064;2023-08-07T00:26:44;0.50;;;0.40;;
73733;SDS011;62039;50.000;9.064;2023-08-07T00:29:11;0.93;;;0.50;;
73733;SDS011;62039;50.000;9.064;2023-08-07T00:31:38;1.27;;;0.47;;
73733;SDS011;62039;50.000;9.064;2023-08-07T00:34:08;2.40;;;0.63;;
73733;SDS011;62039;50.000;9.064;2023-08-07T00:36:35;1.63;;;0.60;;
73733;SDS011;62039;50.000;9.064;2023-08-07T00:39:02;0.77;;;0.70;;
73733;SDS011;62039;50.000;9.064;2023-08-07T00:41:29;1.43;;;0.63;;
73733;SDS011;62039;50.000;9.064;2023-08-07T00:43:56;0.90;;;0.50;;
73733;SDS011;62039;50.000;9.064;2023-08-07T00:46:23;1.63;;;0.70;;
73733;SDS011;62039;50.000;9.064;2023-08-07T00:48:51;3.60;;;0.90;;
73733;SDS011;62039;50.000;9.064;2023-08-07T00:51:21;1.33;;;0.70;;
73733;SDS011;62039;50.000;9.064;2023-08-07T00:53:49;1.13;;;0.73;;
73733;SDS011;62039;50.000;9.064;2023-08-07T00:56:17;1.37;;;0.80;;
73733;SDS011;62039;50.000;9.064;2023-08-07T00:58:44;2.43;;;1.00;;
73733;SDS011;62039;50.000;9.064;2023-08-07T01:01:11;0.83;;;0.60;;
73733;SDS011;62039;50.000;9.064;2023-08-07T01:03:38;1.73;;;0.70;;
73733;SDS011;62039;50.000;9.064;2023-08-07T01:06:05;1.07;;;0.60;;
73733;SDS011;62039;50.000;9.064;2023-08-07T01:08:36;1.20;;;0.60;;
73733;SDS011;62039;50.000;9.064;2023-08-07T01:11:13;1.67;;;0.60;;
73733;SDS011;62039;50.000;9.064;2023-08-07T01:13:49;0.60;;;0.50;;
73733;SDS011;62039;50.000;9.064;2023-08-07T01:16:22;2.77;;;0.80;;
73733;SDS011;62039;50.000;9.064;2023-08-07T01:18:55;1.70;;;0.80;;
73733;SDS011;62039;50.000;9.064;2023-08-07T01:21:23;0.50;;;0.50;;
73733;SDS011;62039;50.000;9.064;2023-08-07T01:23:53;1.30;;;0.77;;
73733;SDS011;62039;50.000;9.064;2023-08-07T01:26:20;1.23;;;0.80;;
73733;SDS011;62039;50.000;9.064;2023-08-07T01:28:49;0.63;;;0.60;;
73733;SDS011;62039;50.000;9.064;2023-08-07T01:31:23;1.07;;;0.70;;
73733;SDS011;62039;50.000;9.064;2023-08-07T01:33:54;1.47;;;0.50;;
73733;SDS011;62039;50.000;9.064;2023-08-07T01:36:26;1.53;;;0.70;;
73733;SDS011;62039;50.000;9.064;2023-08-07T01:38:58;1.50;;;0.70;;
73733;SDS011;62039;50.000;9.064;2023-08-07T01:41:27;1.13;;;0.60;;
73733;SDS011;62039;50.000;9.064;2023-08-07T01:43:54;1.87;;;0.77;;
73733;SDS011;62039;50.000;9.064;2023-08-07T01:46:21;1.50;;;0.63;;
73733;SDS011;62039;50.000;9.064;2023-08-07T01:48:48;1.80;;;0.70;;
73733;SDS011;62039;50.000;9.064;2023-08-07T01:51:15;1.73;;;0.60;;
73733;SDS011;62039;50.000;9.064;2023-08-07T01:53:42;1.17;;;0.60;;
73733;SDS011;62039;50.000;9.064;2023-08-07T01:56:12;1.20;;;0.60;;
73733;SDS011;62039;50.000;9.064;2023-08-07T01:58:39;1.40;;;0.70;;
73733;SDS011;62039;50.000;9.064;2023-08-07T02:01:06;0.50;;;0.43;;
73733;SDS011;62039;50.000;9.064;2023-08-07T02:03:33;1.00;;;0.70;;
73733;SDS011;62039;50.000;9.064;2023-08-07T02:06:00;1.23;;;0.67;;
73733;SDS011;62039;50.000;9.064;2023-08-07T02:08:27;3.13;;;0.90;;
73733;SDS011;62039;50.000;9.064;2023-08-07T02:10:54;3.27;;;0.70;;
73733;SDS011;62039;50.000;9.064;2023-08-07T02:13:23;1.73;;;0.70;;
73733;SDS011;62039;50.000;9.064;2023-08-07T02:15:50;2.30;;;0.80;;
73733;SDS011;62039;50.000;9.064;2023-08-07T02:18:17;3.37;;;1.00;;
73733;SDS011;62039;50.000;9.064;2023-08-07T02:20:44;2.70;;;0.90;;
73733;SDS011;62039;50.000;9.064;2023-08-07T02:23:11;2.07;;;0.90;;
73733;SDS011;62039;50.000;9.064;2023-08-07T02:25:38;1.07;;;0.70;;
73733;SDS011;62039;50.000;9.064;2023-08-07T02:28:05;4.20;;;0.97;;
73733;SDS011;62039;50.000;9.064;2023-08-07T02:30:34;2.00;;;0.80;;
73733;SDS011;62039;50.000;9.064;2023-08-07T02:33:01;2.40;;;0.70;;
73733;SDS011;62039;50.000;9.064;2023-08-07T02:35:28;1.43;;;0.90;;
73733;SDS011;62039;50.000;9.064;2023-08-07T02:37:55;1.33;;;0.80;;
73733;SDS011;62039;50.000;9.064;2023-08-07T02:40:22;0.50;;;0.50;;
73733;SDS011;62039;50.000;9.064;2023-08-07T02:42:49;1.47;;;0.87;;
73733;SDS011;62039;50.000;9.064;2023-08-07T02:45:16;2.77;;;1.13;;
73733;SDS011;62039;50.000;9.064;2023-08-07T02:47:46;2.57;;;0.90;;
73733;SDS011;62039;50.000;9.064;2023-08-07T02:50:13;2.53;;;1.00;;
73733;SDS011;62039;50.000;9.064;2023-08-07T02:52:40;1.63;;;0.90;;
73733;SDS011;62039;50.000;9.064;2023-08-07T02:55:09;3.03;;;1.10;;
73733;SDS011;62039;50.000;9.064;2023-08-07T02:57:36;1.53;;;0.77;;
73733;SDS011;62039;50.000;9.064;2023-08-07T03:00:04;2.13;;;1.00;;
73733;SDS011;62039;50.000;9.064;2023-08-07T03:02:32;1.97;;;1.23;;
73733;SDS011;62039;50.000;9.064;2023-08-07T03:05:01;2.90;;;1.40;;
73733;SDS011;62039;50.000;9.064;2023-08-07T03:07:29;3.20;;;1.20;;
73733;SDS011;62039;50.000;9.064;2023-08-07T03:09:56;2.00;;;1.20;;
73733;SDS011;62039;50.000;9.064;2023-08-07T03:12:23;3.23;;;1.17;;
73733;SDS011;62039;50.000;9.064;2023-08-07T03:14:50;2.83;;;1.30;;
73733;SDS011;62039;50.000;9.064;2023-08-07T03:17:17;1.67;;;1.00;;
73733;SDS011;62039;50.000;9.064;2023-08-07T03:19:44;1.83;;;1.03;;
73733;SDS011;62039;50.000;9.064;2023-08-07T03:22:13;1.80;;;0.90;;
73733;SDS011;62039;50.000;9.064;2023-08-07T03:24:40;4.50;;;1.10;;
73733;SDS011;62039;50.000;9.064;2023-08-07T03:27:07;2.43;;;1.30;;
73733;SDS011;62039;50.000;9.064;2023-08-07T03:29:34;2.27;;;1.37;;
73733;SDS011;62039;50.000;9.064;2023-08-07T03:32:01;1.77;;;1.10;;
73733;SDS011;62039;50.000;9.064;2023-08-07T03:34:28;4.17;;;1.53;;
73733;SDS011;62039;50.000;9.064;2023-08-07T03:36:55;3.17;;;1.50;;
73733;SDS011;62039;50.000;9.064;2023-08-07T03:39:25;3.20;;;1.30;;
73733;SDS011;62039;50.000;9.064;2023-08-07T03:41:52;2.97;;;1.40;;
73733;SDS011;62039;50.000;9.064;2023-08-07T03:44:19;2.07;;;1.20;;
73733;SDS011;62039;50.000;9.064;2023-08-07T03:46:46;1.27;;;1.00;;
73733;SDS011;62039;50.000;9.064;2023-08-07T03:49:13;3.27;;;1.47;;
73733;SDS011;62039;50.000;9.064;2023-08-07T03:51:40;2.60;;;1.30;;
73733;SDS011;62039;50.000;9.064;2023-08-07T03:54:07;2.13;;;1.17;;
73733;SDS011;62039;50.000;9.064;2023-08-07T03:56:37;2.70;;;1.40;;
73733;SDS011;62039;50.000;9.064;2023-08-07T03:59:04;3.07;;;1.50;;
73733;SDS011;62039;50.000;9.064;2023-08-07T04:01:31;1.93;;;1.17;;
73733;SDS011;62039;50.000;9.064;2023-08-07T04:03:58;2.30;;;1.10;;
73733;SDS011;62039;50.000;9.064;2023-08-07T04:06:25;2.43;;;1.10;;
73733;SDS011;62039;50.000;9.064;2023-08-07T04:08:52;2.27;;;1.10;;
73733;SDS011;62039;50.000;9.064;2023-08-07T04:11:19;2.57;;;1.50;;
73733;SDS011;62039;50.000;9.064;2023-08-07T04:13:48;4.07;;;1.50;;
73733;SDS011;62039;50.000;9.064;2023-08-07T04:16:15;2.20;;;1.20;;
73733;SDS011;62039;50.000;9.064;2023-08-07T04:18:42;2.80;;;1.13;;
73733;SDS011;62039;50.000;9.064;2023-08-07T04:21:09;2.43;;;1.20;;
73733;SDS011;62039;50.000;9.064;2023-08-07T04:23:36;2.33;;;1.53;;
73733;SDS011;62039;50.000;9.064;2023-08-07T04:26:06;2.60;;;1.10;;
73733;SDS011;62039;50.000;9.064;2023-08-07T04:28:33;1.30;;;1.20;;
73733;SDS011;62039;50.000;9.064;2023-08-07T04:31:02;2.20;;;1.17;;
73733;SDS011;62039;50.000;9.064;2023-08-07T04:33:29;1.60;;;1.20;;
73733;SDS011;62039;50.000;9.064;2023-08-07T04:35:56;2.30;;;1.37;;
73733;SDS011;62039;50.000;9.064;2023-08-07T04:38:23;1.70;;;1.17;;
73733;SDS011;62039;50.000;9.064;2023-08-07T04:40:50;2.57;;;1.13;;
73733;SDS011;62039;50.000;9.064;2023-08-07T04:43:18;2.07;;;1.40;;
73733;SDS011;62039;50.000;9.064;2023-08-07T04:45:45;2.37;;;1.30;;
73733;SDS011;62039;50.000;9.064;2023-08-07T04:48:15;1.73;;;1.07;;
73733;SDS011;62039;50.000;9.064;2023-08-07T04:50:42;1.50;;;1.10;;
73733;SDS011;62039;50.000;9.064;2023-08-07T04:53:09;4.00;;;1.67;;
73733;SDS011;62039;50.000;9.064;2023-08-07T04:55:36;2.23;;;1.43;;
73733;SDS011;62039;50.000;9.064;2023-08-07T04:58:03;2.00;;;1.43;;
73733;SDS011;62039;50.000;9.064;2023-08-07T05:00:30;2.93;;;1.30;;
73733;SDS011;62039;50.000;9.064;2023-08-07T05:02:57;2.13;;;1.20;;
73733;SDS011;62039;50.000;9.064;2023-08-07T05:05:27;2.87;;;1.23;;
73733;SDS011;62039;50.000;9.064;2023-08-07T05:07:54;2.10;;;1.10;;
73733;SDS011;62039;50.000;9.064;2023-08-07T05:10:21;5.77;;;1.80;;
73733;SDS011;62039;50.000;9.064;2023-08-07T05:12:48;1.70;;;1.00;;
73733;SDS011;62039;50.000;9.064;2023-08-07T05:15:15;2.60;;;1.17;;
73733;SDS011;62039;50.000;9.064;2023-08-07T05:17:42;2.20;;;1.20;;
73733;SDS011;62039;50.000;9.064;2023-08-07T05:20:10;3.23;;;1.27;;
73733;SDS011;62039;50.000;9.064;2023-08-07T05:22:40;2.23;;;1.47;;
73733;SDS011;62039;50.000;9.064;2023-08-07T05:25:07;2.47;;;1.30;;
73733;SDS011;62039;50.000;9.064;2023-08-07T05:27:35;3.57;;;1.23;;
73733;SDS011;62039;50.000;9.064;2023-08-07T05:30:02;2.73;;;1.77;;
73733;SDS011;62039;50.000;9.064;2023-08-07T05:32:29;2.50;;;1.40;;
73733;SDS011;62039;50.000;9.064;2023-08-07T05:34:56;3.20;;;1.30;;
73733;SDS011;62039;50.000;9.064;2023-08-07T05:37:23;1.33;;;1.10;;
73733;SDS011;62039;50.000;9.064;2023-08-07T05:39:53;3.57;;;1.57;;
73733;SDS011;62039;50.000;9.064;2023-08-07T05:42:20;2.50;;;1.23;;
73733;SDS011;62039;50.000;9.064;2023-08-07T05:44:47;2.23;;;1.33;;
73733;SDS011;62039;50.000;9.064;2023-08-07T05:47:14;2.53;;;1.30;;
73733;SDS011;62039;50.000;9.064;2023-08-07T05:49:41;2.53;;;1.30;;
73733;SDS011;62039;50.000;9.064;2023-08-07T05:52:08;1.57;;;1.23;;
73733;SDS011;62039;50.000;9.064;2023-08-07T05:54:35;2.10;;;1.27;;
73733;SDS011;62039;50.000;9.064;2023-08-07T05:57:05;2.50;;;1.20;;
73733;SDS011;62039;50.000;9.064;2023-08-07T05:59:33;1.90;;;1.17;;
73733;SDS011;62039;50.000;9.064;2023-08-07T06:01:59;2.20;;;1.40;;
73733;SDS011;62039;50.000;9.064;2023-08-07T06:04:27;2.33;;;1.27;;
73733;SDS011;62039;50.000;9.064;2023-08-07T06:06:54;3.37;;;1.43;;
73733;SDS011;62039;50.000;9.064;2023-08-07T06:09:21;3.67;;;1.90;;
73733;SDS011;62039;50.000;9.064;2023-08-07T06:11:48;2.87;;;1.67;;
73733;SDS011;62039;50.000;9.064;2023-08-07T06:14:18;2.63;;;1.47;;
73733;SDS011;62039;50.000;9.064;2023-08-07T06:16:45;2.50;;;1.37;;
73733;SDS011;62039;50.000;9.064;2023-08-07T06:19:12;1.87;;;1.37;;
73733;SDS011;62039;50.000;9.064;2023-08-07T06:21:54;3.47;;;1.30;;
73733;SDS011;62039;50.000;9.064;2023-08-07T06:24:22;2.57;;;1.23;;
73733;SDS011;62039;50.000;9.064;2023-08-07T06:26:49;2.43;;;1.50;;
73733;SDS011;62039;50.000;9.064;2023-08-07T06:29:19;4.03;;;1.60;;
73733;SDS011;62039;50.000;9.064;2023-08-07T06:31:46;1.60;;;1.47;;
73733;SDS011;62039;50.000;9.064;2023-08-07T06:34:13;2.93;;;1.87;;
73733;SDS011;62039;50.000;9.064;2023-08-07T06:36:40;3.07;;;1.40;;
73733;SDS011;62039;50.000;9.064;2023-08-07T06:39:07;4.23;;;1.47;;
73733;SDS011;62039;50.000;9.064;2023-08-07T06:41:34;2.03;;;1.57;;
73733;SDS011;62039;50.000;9.064;2023-08-07T06:44:01;2.90;;;1.30;;
73733;SDS011;62039;50.000;9.064;2023-08-07T06:46:31;3.43;;;1.40;;
73733;SDS011;62039;50.000;9.064;2023-08-07T06:48:58;1.97;;;1.30;;
73733;SDS011;62039;50.000;9.064;2023-08-07T06:51:25;3.07;;;1.63;;
73733;SDS011;62039;50.000;9.064;2023-08-07T06:53:52;2.67;;;1.60;;
73733;SDS011;62039;50.000;9.064;2023-08-07T06:56:19;3.13;;;1.50;;
73733;SDS011;62039;50.000;9.064;2023-08-07T06:58:46;3.10;;;1.50;;
73733;SDS011;62039;50.000;9.064;2023-08-07T07:01:13;3.63;;;1.53;;
73733;SDS011;62039;50.000;9.064;2023-08-07T07:03:42;1.97;;;1.60;;
73733;SDS011;62039;50.000;9.064;2023-08-07T07:06:09;1.30;;;1.03;;
73733;SDS011;62039;50.000;9.064;2023-08-07T07:08:36;3.73;;;1.33;;
73733;SDS011;62039;50.000;9.064;2023-08-07T07:11:03;1.63;;;1.33;;
73733;SDS011;62039;50.000;9.064;2023-08-07T07:13:30;3.30;;;1.83;;
73733;SDS011;62039;50.000;9.064;2023-08-07T07:15:57;2.00;;;1.57;;
73733;SDS011;62039;50.000;9.064;2023-08-07T07:18:24;3.93;;;1.70;;
73733;SDS011;62039;50.000;9.064;2023-08-07T07:20:58;3.87;;;1.30;;
73733;SDS011;62039;50.000;9.064;2023-08-07T07:23:26;2.57;;;1.40;;
73733;SDS011;62039;50.000;9.064;2023-08-07T07:25:53;3.73;;;1.67;;
73733;SDS011;62039;50.000;9.064;2023-08-07T07:28:20;2.83;;;1.50;;
73733;SDS011;62039;50.000;9.064;2023-08-07T07:30:47;1.70;;;1.20;;
73733;SDS011;62039;50.000;9.064;2023-08-07T07:33:15;3.70;;;1.63;;
73733;SDS011;62039;50.000;9.064;2023-08-07T07:35:42;1.73;;;1.30;;
73733;SDS011;62039;50.000;9.064;2023-08-07T07:38:12;3.43;;;1.60;;
73733;SDS011;62039;50.000;9.064;2023-08-07T07:40:39;4.13;;;1.50;;
73733;SDS011;62039;50.000;9.064;2023-08-07T07:43:06;3.53;;;1.83;;
73733;SDS011;62039;50.000;9.064;2023-08-07T07:45:33;3.50;;;1.63;;
73733;SDS011;62039;50.000;9.064;2023-08-07T07:48:00;2.20;;;1.30;;
73733;SDS011;62039;50.000;9.064;2023-08-07T07:50:28;2.83;;;1.60;;
73733;SDS011;62039;50.000;9.064;2023-08-07T07:52:55;3.30;;;1.40;;
73733;SDS011;62039;50.000;9.064;2023-08-07T07:55:25;4.37;;;1.77;;
73733;SDS011;62039;50.000;9.064;2023-08-07T07:57:53;2.77;;;1.53;;
73733;SDS011;62039;50.000;9.064;2023-08-07T08:00:20;2.53;;;1.43;;
73733;SDS011;62039;50.000;9.064;2023-08-07T08:02:48;1.40;;;1.30;;
73733;SDS011;62039;50.000;9.064;2023-08-07T08:05:15;1.27;;;1.10;;
73733;SDS011;62039;50.000;9.064;2023-08-07T08:07:44;2.10;;;1.23;;
73733;SDS011;62039;50.000;9.064;2023-08-07T08:10:11;3.23;;;1.40;;
73733;SDS011;62039;50.000;9.064;2023-08-07T08:12:40;1.97;;;1.30;;
73733;SDS011;62039;50.000;9.064;2023-08-07T08:15:08;2.77;;;1.30;;
73733;SDS011;62039;50.000;9.064;2023-08-07T08:17:35;2.00;;;1.30;;
73733;SDS011;62039;50.000;9.064;2023-08-07T08:20:02;1.83;;;1.43;;
73733;SDS011;62039;50.000;9.064;2023-08-07T08:22:30;3.13;;;1.57;;
73733;SDS011;62039;50.000;9.064;2023-08-07T08:24:57;2.53;;;1.60;;
73733;SDS011;62039;50.000;9.064;2023-08-07T08:27:24;3.47;;;1.60;;
73733;SDS011;62039;50.000;9.064;2023-08-07T08:29:53;1.70;;;1.10;;
73733;SDS011;62039;50.000;9.064;2023-08-07T08:32:20;2.17;;;1.53;;
73733;SDS011;62039;50.000;9.064;2023-08-07T08:34:47;2.10;;;1.37;;
73733;SDS011;62039;50.000;9.064;2023-08-07T08:37:14;1.57;;;1.13;;
73733;SDS011;62039;50.000;9.064;2023-08-07T08:39:41;1.97;;;1.30;;
73733;SDS011;62039;50.000;9.064;2023-08-07T08:42:08;2.80;;;1.37;;
73733;SDS011;62039;50.000;9.064;2023-08-07T08:44:38;2.97;;;1.30;;
73733;SDS011;62039;50.000;9.064;2023-08-07T08:47:08;2.13;;;1.30;;
73733;SDS011;62039;50.000;9.064;2023-08-07T08:49:39;2.77;;;1.30;;
73733;SDS011;62039;50.000;9.064;2023-08-07T08:52:11;1.77;;;1.30;;
73733;SDS011;62039;50.000;9.064;2023-08-07T08:54:39;1.80;;;1.30;;
73733;SDS011;62039;50.000;9.064;2023-08-07T08:57:06;1.97;;;1.17;;
73733;SDS011;62039;50.000;9.064;2023-08-07T08:59:34;1.40;;;1.20;;
73733;SDS011;62039;50.000;9.064;2023-08-07T09:02:01;3.17;;;1.50;;
73733;SDS011;62039;50.000;9.064;2023-08-07T09:04:31;4.07;;;1.70;;
73733;SDS011;62039;50.000;9.064;2023-08-07T09:06:58;2.97;;;1.60;;
73733;SDS011;62039;50.000;9.064;2023-08-07T09:09:26;2.23;;;1.47;;
73733;SDS011;62039;50.000;9.064;2023-08-07T09:11:54;4.17;;;1.70;;
73733;SDS011;62039;50.000;9.064;2023-08-07T09:14:24;4.03;;;1.83;;
73733;SDS011;62039;50.000;9.064;2023-08-07T09:16:53;1.97;;;1.60;;
73733;SDS011;62039;50.000;9.064;2023-08-07T09:19:21;1.43;;;1.27;;
73733;SDS011;62039;50.000;9.064;2023-08-07T09:21:50;2.53;;;1.50;;
73733;SDS011;62039;50.000;9.064;2023-08-07T09:24:17;3.10;;;1.27;;
73733;SDS011;62039;50.000;9.064;2023-08-07T09:26:47;2.90;;;1.50;;
73733;SDS011;62039;50.000;9.064;2023-08-07T09:29:17;2.37;;;1.40;;
73733;SDS011;62039;50.000;9.064;2023-08-07T09:31:44;2.77;;;1.57;;
73733;SDS011;62039;50.000;9.064;2023-08-07T09:34:11;2.63;;;1.63;;
73733;SDS011;62039;50.000;9.064;2023-08-07T09:36:38;3.37;;;1.70;;
73733;SDS011;62039;50.000;9.064;2023-08-07T09:39:07;3.23;;;1.50;;
73733;SDS011;62039;50.000;9.064;2023-08-07T09:41:34;1.50;;;1.40;;
73733;SDS011;62039;50.000;9.064;2023-08-07T09:44:05;1.73;;;1.27;;
73733;SDS011;62039;50.000;9.064;2023-08-07T09:46:34;5.60;;;1.63;;
73733;SDS011;62039;50.000;9.064;2023-08-07T09:49:07;2.93;;;1.33;;
73733;SDS011;62039;50.000;9.064;2023-08-07T09:51:40;2.80;;;1.50;;
73733;SDS011;62039;50.000;9.064;2023-08-07T09:54:11;2.63;;;1.83;;
73733;SDS011;62039;50.000;9.064;2023-08-07T09:56:38;2.60;;;1.57;;
73733;SDS011;62039;50.000;9.064;2023-08-07T09:59:07;3.60;;;1.30;;
73733;SDS011;62039;50.000;9.064;2023-08-07T10:01:36;1.83;;;1.20;;
73733;SDS011;62039;50.000;9.064;2023-08-07T10:04:04;2.67;;;1.27;;
73733;SDS011;62039;50.000;9.064;2023-08-07T10:06:32;1.60;;;1.33;;
73733;SDS011;62039;50.000;9.064;2023-08-07T10:08:59;4.37;;;1.90;;
73733;SDS011;62039;50.000;9.064;2023-08-07T10:11:30;1.53;;;1.10;;
73733;SDS011;62039;50.000;9.064;2023-08-07T10:13:58;1.97;;;1.17;;
73733;SDS011;62039;50.000;9.064;2023-08-07T10:16:25;1.43;;;1.10;;
73733;SDS011;62039;50.000;9.064;2023-08-07T10:18:53;2.50;;;1.40;;
73733;SDS011;62039;50.000;9.064;2023-08-07T10:21:20;2.30;;;1.20;;
73733;SDS011;62039;50.000;9.064;2023-08-07T10:27:03;3.40;;;1.70;;
73733;SDS011;62039;50.000;9.064;2023-08-07T10:29:31;2.53;;;1.43;;
73733;SDS011;62039;50.000;9.064;2023-08-07T10:32:00;2.03;;;1.27;;
73733;SDS011;62039;50.000;9.064;2023-08-07T10:34:29;2.00;;;1.30;;
73733;SDS011;62039;50.000;9.064;2023-08-07T10:36:56;2.00;;;1.23;;
73733;SDS011;62039;50.000;9.064;2023-08-07T10:39:23;1.93;;;1.23;;
73733;SDS011;62039;50.000;9.064;2023-08-07T10:41:52;2.83;;;1.53;;
73733;SDS011;62039;50.000;9.064;2023-08-07T10:44:23;1.97;;;1.23;;
73733;SDS011;62039;50.000;9.064;2023-08-07T10:46:51;1.63;;;1.10;;
73733;SDS011;62039;50.000;9.064;2023-08-07T10:49:29;2.80;;;1.50;;
73733;SDS011;62039;50.000;9.064;2023-08-07T10:51:57;3.70;;;1.20;;
73733;SDS011;62039;50.000;9.064;2023-08-07T10:54:24;2.20;;;1.40;;
73733;SDS011;62039;50.000;9.064;2023-08-07T10:56:52;2.03;;;1.00;;
73733;SDS011;62039;50.000;9.064;2023-08-07T10:59:23;2.60;;;1.30;;
73733;SDS011;62039;50.000;9.064;2023-08-07T11:01:50;3.40;;;1.40;;
73733;SDS011;62039;50.000;9.064;2023-08-07T11:04:21;1.83;;;1.20;;
73733;SDS011;62039;50.000;9.064;2023-08-07T11:06:48;1.93;;;1.03;;
73733;SDS011;62039;50.000;9.064;2023-08-07T11:09:15;2.20;;;1.07;;
73733;SDS011;62039;50.000;9.064;2023-08-07T11:11:43;2.70;;;1.60;;
73733;SDS011;62039;50.000;9.064;2023-08-07T11:14:12;1.70;;;1.07;;
73733;SDS011;62039;50.000;9.064;2023-08-07T11:16:43;1.77;;;1.20;;
73733;SDS011;62039;50.000;9.064;2023-08-07T11:19:11;2.93;;;1.20;;
73733;SDS011;62039;50.000;9.064;2023-08-07T11:21:39;1.63;;;1.30;;
73733;SDS011;62039;50.000;9.064;2023-08-07T11:24:07;1.90;;;1.13;;
73733;SDS011;62039;50.000;9.064;2023-08-07T11:26:34;1.93;;;1.17;;
73733;SDS011;62039;50.000;9.064;2023-08-07T11:29:01;2.03;;;1.17;;
73733;SDS011;62039;50.000;9.064;2023-08-07T11:31:28;2.00;;;1.33;;
73733;SDS011;62039;50.000;9.064;2023-08-07T11:33:58;1.97;;;1.27;;
73733;SDS011;62039;50.000;9.064;2023-08-07T11:36:26;1.87;;;1.20;;
73733;SDS011;62039;50.000;9.064;2023-08-07T11:38:53;1.13;;;1.03;;
73733;SDS011;62039;50.000;9.064;2023-08-07T11:41:20;1.43;;;1.13;;
73733;SDS011;62039;50.000;9.064;2023-08-07T11:43:47;1.90;;;1.40;;
73733;SDS011;62039;50.000;9.064;2023-08-07T11:46:14;1.93;;;1.20;;
73733;SDS011;62039;50.000;9.064;2023-08-07T11:48:42;3.37;;;1.30;;
73733;SDS011;62039;50.000;9.064;2023-08-07T11:51:13;1.30;;;1.00;;
73733;SDS011;62039;50.000;9.064;2023-08-07T11:53:41;2.73;;;1.40;;
73733;SDS011;62039;50.000;9.064;2023-08-07T11:56:08;1.57;;;1.47;;
73733;SDS011;62039;50.000;9.064;2023-08-07T11:58:37;6.17;;;1.60;;
73733;SDS011;62039;50.000;9.064;2023-08-07T12:01:05;2.23;;;1.50;;
73733;SDS011;62039;50.000;9.064;2023-08-07T12:03:34;1.53;;;1.30;;
73733;SDS011;62039;50.000;9.064;2023-08-07T12:06:03;1.87;;;1.30;;
73733;SDS011;62039;50.000;9.064;2023-08-07T12:08:34;2.30;;;1.47;;
73733;SDS011;62039;50.000;9.064;2023-08-07T12:11:02;2.77;;;1.33;;
73733;SDS011;62039;50.000;9.064;2023-08-07T12:13:30;2.33;;;1.50;;
73733;SDS011;62039;50.000;9.064;2023-08-07T12:15:58;1.60;;;1.30;;
73733;SDS011;62039;50.000;9.064;2023-08-07T12:18:26;2.20;;;1.50;;
73733;SDS011;62039;50.000;9.064;2023-08-07T12:20:56;2.30;;;1.50;;
73733;SDS011;62039;50.000;9.064;2023-08-07T12:23:24;2.67;;;1.60;;
73733;SDS011;62039;50.000;9.064;2023-08-07T12:25:54;1.70;;;1.20;;
73733;SDS011;62039;50.000;9.064;2023-08-07T12:28:21;1.83;;;1.50;;
73733;SDS011;62039;50.000;9.064;2023-08-07T12:30:48;2.73;;;1.30;;
73733;SDS011;62039;50.000;9.064;2023-08-07T12:33:16;1.80;;;1.50;;
73733;SDS011;62039;50.000;9.064;2023-08-07T12:35:43;2.50;;;1.87;;
73733;SDS011;62039;50.000;9.064;2023-08-07T12:38:10;2.43;;;1.80;;
73733;SDS011;62039;50.000;9.064;2023-08-07T12:40:37;2.10;;;1.70;;
73733;SDS011;62039;50.000;9.064;2023-08-07T12:43:09;1.97;;;1.40;;
73733;SDS011;62039;50.000;9.064;2023-08-07T12:45:36;3.57;;;1.60;;
73733;SDS011;62039;50.000;9.064;2023-08-07T12:48:06;2.03;;;1.20;;
73733;SDS011;62039;50.000;9.064;2023-08-07T12:50:34;1.80;;;1.33;;
73733;SDS011;62039;50.000;9.064;2023-08-07T12:53:01;2.33;;;1.60;;
73733;SDS011;62039;50.000;9.064;2023-08-07T12:55:28;2.37;;;1.50;;
73733;SDS011;62039;50.000;9.064;2023-08-07T12:57:55;2.17;;;1.50;;
73733;SDS011;62039;50.000;9.064;2023-08-07T13:00:25;2.07;;;1.30;;
73733;SDS011;62039;50.000;9.064;2023-08-07T13:02:53;2.30;;;1.30;;
73733;SDS011;62039;50.000;9.064;2023-08-07T13:05:20;1.83;;;1.57;;
73733;SDS011;62039;50.000;9.064;2023-08-07T13:07:48;1.80;;;1.33;;
73733;SDS011;62039;50.000;9.064;2023-08-07T13:10:16;1.93;;;1.30;;
73733;SDS011;62039;50.000;9.064;2023-08-07T13:12:44;2.00;;;1.40;;
73733;SDS011;62039;50.000;9.064;2023-08-07T13:15:14;2.30;;;1.43;;
73733;SDS011;62039;50.000;9.064;2023-08-07T13:17:44;2.27;;;1.80;;
73733;SDS011;62039;50.000;9.064;2023-08-07T13:20:12;2.17;;;1.60;;
73733;SDS011;62039;50.000;9.064;2023-08-07T13:22:40;2.87;;;1.83;;
73733;SDS011;62039;50.000;9.064;2023-08-07T13:25:08;2.40;;;1.70;;
73733;SDS011;62039;50.000;9.064;2023-08-07T13:27:36;1.60;;;1.40;;
73733;SDS011;62039;50.000;9.064;2023-08-07T13:30:07;2.20;;;1.47;;
73733;SDS011;62039;50.000;9.064;2023-08-07T13:32:34;1.60;;;1.40;;
73733;SDS011;62039;50.000;9.064;2023-08-07T13:35:05;1.70;;;1.43;;
73733;SDS011;62039;50.000;9.064;2023-08-07T13:37:33;1.93;;;1.30;;
73733;SDS011;62039;50.000;9.064;2023-08-07T13:40:00;2.30;;;1.50;;
73733;SDS011;62039;50.000;9.064;2023-08-07T13:42:27;1.50;;;1.20;;
73733;SDS011;62039;50.000;9.064;2023-08-07T13:44:54;2.57;;;1.90;;
73733;SDS011;62039;50.000;9.064;2023-08-07T13:47:21;1.17;;;1.07;;
73733;SDS011;62039;50.000;9.064;2023-08-07T13:49:48;1.63;;;1.30;;
73733;SDS011;62039;50.000;9.064;2023-08-07T13:52:18;1.67;;;1.27;;
73733;SDS011;62039;50.000;9.064;2023-08-07T13:54:45;1.30;;;1.10;;
73733;SDS011;62039;50.000;9.064;2023-08-07T13:57:12;2.10;;;1.40;;
73733;SDS011;62039;50.000;9.064;2023-08-07T13:59:39;2.87;;;1.60;;
73733;SDS011;62039;50.000;9.064;2023-08-07T14:02:06;1.97;;;1.40;;
73733;SDS011;62039;50.000;9.064;2023-08-07T14:04:33;3.13;;;1.30;;
73733;SDS011;62039;50.000;9.064;2023-08-07T14:07:00;5.63;;;1.60;;
73733;SDS011;62039;50.000;9.064;2023-08-07T14:09:30;2.40;;;1.50;;
73733;SDS011;62039;50.000;9.064;2023-08-07T14:11:57;1.43;;;1.23;;
73733;SDS011;62039;50.000;9.064;2023-08-07T14:14:25;1.90;;;1.10;;
73733;SDS011;62039;50.000;9.064;2023-08-07T14:16:52;3.60;;;1.63;;
73733;SDS011;62039;50.000;9.064;2023-08-07T14:19:19;1.87;;;1.40;;
73733;SDS011;62039;50.000;9.064;2023-08-07T14:21:46;1.67;;;1.33;;
73733;SDS011;62039;50.000;9.064;2023-08-07T14:24:13;2.27;;;1.30;;
73733;SDS011;62039;50.000;9.064;2023-08-07T14:26:42;2.23;;;1.20;;
73733;SDS011;62039;50.000;9.064;2023-08-07T14:29:10;1.67;;;1.30;;
73733;SDS011;62039;50.000;9.064;2023-08-07T14:31:37;1.83;;;1.13;;
73733;SDS011;62039;50.000;9.064;2023-08-07T14:34:03;3.33;;;1.33;;
73733;SDS011;62039;50.000;9.064;2023-08-07T14:36:31;2.23;;;1.20;;
73733;SDS011;62039;50.000;9.064;2023-08-07T14:38:58;1.67;;;1.20;;
73733;SDS011;62039;50.000;9.064;2023-08-07T14:41:25;2.63;;;1.13;;
73733;SDS011;62039;50.000;9.064;2023-08-07T14:43:54;2.60;;;1.10;;
73733;SDS011;62039;50.000;9.064;2023-08-07T14:46:21;2.57;;;1.20;;
73733;SDS011;62039;50.000;9.064;2023-08-07T14:48:48;1.47;;;1.20;;
73733;SDS011;62039;50.000;9.064;2023-08-07T14:51:15;1.70;;;1.27;;
73733;SDS011;62039;50.000;9.064;2023-08-07T14:53:42;1.40;;;0.90;;
73733;SDS011;62039;50.000;9.064;2023-08-07T14:56:09;1.90;;;1.30;;